Drewryville, Virginia
Current Conditions -  °F | °C
As of 9:15 PM on Monday 22 Dec 2014 (Local Time) from KEMV Reporting Station
Haze Haze  
Wind Chill: 31°   Ceiling: 300
Heat Index: 36°   Visibility: 1.7mi
Dew Point: 36°   Wind: 6mph
Humidity: 100%   Direction: 290°WNW
Pressure: 30.09"   Gusts: NA
Location:  36.72°N, 77.31°W
Report Text: KEMV 230215Z AUTO 29005KT 1 3/4SM BR OVC003 02/02 A3009 RMK AO2
Loading
Personal Weather Stations






























Interactive Weather Map New forecast layout! Learn more

10-Day Weather Forecast

Advertisements
Track Severe Weather on mobile